Time;durP1;ratioP1;P1;durP2;ratioP2;P2;SDS_P1;SDS_P2;PMS_P1;PMS_P2;Temp;Humidity;BMP_temperature;BMP_pressure;BME280_temperature;BME280_humidity;BME280_pressure;Samples;Min_cycle;Max_cycle;Signal;HPM_P1;HPM_P2
2023/04/28 00:13:11;;;;;;;39.33;18.98;;;;;;;5.57;58.54;100623.22;30978893;28;97519;-61
2023/04/28 00:28:11;;;;;;;36.60;19.75;;;;;;;5.68;58.30;100607.28;30978273;28;96981;-62
2023/04/28 00:43:13;;;;;;;26.92;16.02;;;;;;;5.76;58.64;100607.50;30976046;28;97044;-63
2023/04/28 00:58:13;;;;;;;31.52;16.25;;;;;;;5.76;58.78;100596.09;30975070;28;96845;-61
2023/04/28 01:13:13;;;;;;;27.23;15.77;;;;;;;5.68;59.04;100585.31;30974895;28;96751;-61
2023/04/28 01:28:14;;;;;;;23.50;12.18;;;;;;;5.66;59.49;100581.94;30972429;28;97184;-63
2023/04/28 01:43:14;;;;;;;26.35;13.32;;;;;;;5.63;59.91;100576.94;30970274;28;96730;-62
2023/04/28 01:58:14;;;;;;;24.08;11.93;;;;;;;5.51;60.51;100565.56;30980964;28;103712;-61
2023/04/28 02:13:16;;;;;;;27.23;13.32;;;;;;;5.50;61.06;100562.09;30989782;28;112247;-62
2023/04/28 02:28:16;;;;;;;31.52;13.52;;;;;;;5.49;60.97;100563.06;30989393;28;97361;-63
2023/04/28 02:43:16;;;;;;;27.13;13.38;;;;;;;5.37;61.11;100551.72;30985588;28;96766;-64
2023/04/28 02:58:18;;;;;;;21.35;12.10;;;;;;;5.27;61.28;100539.41;30899217;28;97194;-63
2023/04/28 03:13:18;;;;;;;22.67;11.95;;;;;;;5.20;61.33;100544.34;30861056;28;96777;-62
2023/04/28 03:28:18;;;;;;;20.58;12.77;;;;;;;5.02;62.04;100547.53;30860452;28;97225;-62
2023/04/28 03:43:19;;;;;;;23.65;14.63;;;;;;;4.75;62.25;100546.16;30855308;28;103314;-61
2023/04/28 03:58:19;;;;;;;23.90;14.77;;;;;;;4.63;63.07;100536.59;30854093;28;96791;-65
2023/04/28 04:13:20;;;;;;;19.48;11.60;;;;;;;4.81;62.97;100536.09;30852786;28;97637;-63
2023/04/28 04:28:21;;;;;;;29.30;15.70;;;;;;;4.92;63.27;100538.69;30852795;28;97418;-62
2023/04/28 04:43:21;;;;;;;27.05;14.88;;;;;;;5.17;62.96;100534.06;30899403;28;103175;-63
2023/04/28 04:58:21;;;;;;;27.80;16.00;;;;;;;5.49;62.91;100527.88;30969206;28;104929;-62
2023/04/28 05:13:22;;;;;;;25.83;15.40;;;;;;;5.86;62.29;100519.47;30919402;28;98742;-66
2023/04/28 05:28:22;;;;;;;28.90;16.40;;;;;;;6.10;61.67;100522.66;30913012;28;101771;-66
2023/04/28 05:43:22;;;;;;;25.08;14.77;;;;;;;6.60;61.18;100518.34;30957769;28;112477;-63
2023/04/28 05:58:23;;;;;;;26.20;16.08;;;;;;;7.21;60.59;100505.88;30972064;28;106382;-66
2023/04/28 06:13:23;;;;;;;26.23;16.35;;;;;;;7.94;60.19;100503.47;30988464;28;98431;-63
2023/04/28 06:28:23;;;;;;;30.65;16.63;;;;;;;8.96;58.58;100482.22;30987207;28;109720;-67
2023/04/28 06:43:24;;;;;;;25.23;15.32;;;;;;;10.56;56.51;100490.81;30984214;28;96784;-65
2023/04/28 06:58:24;;;;;;;25.98;13.63;;;;;;;11.26;53.22;100477.06;30980562;28;99812;-64
2023/04/28 07:13:25;;;;;;;19.35;13.35;;;;;;;11.67;51.81;100460.97;30989077;28;96648;-63
2023/04/28 07:28:26;;;;;;;19.67;10.65;;;;;;;12.78;49.33;100447.59;30983077;28;96751;-63
2023/04/28 07:43:27;;;;;;;15.37;10.17;;;;;;;13.82;45.86;100435.44;30985449;28;96881;-64
2023/04/28 07:58:27;;;;;;;12.90;8.82;;;;;;;14.37;42.88;100419.84;30870666;28;98506;-65
2023/04/28 08:13:27;;;;;;;14.13;7.38;;;;;;;15.19;39.51;100417.72;30857460;28;107815;-64
2023/04/28 08:28:28;;;;;;;12.98;8.60;;;;;;;15.49;38.32;100396.03;30853076;28;96688;-65
2023/04/28 08:43:29;;;;;;;11.23;5.07;;;;;;;15.67;35.43;100395.53;30865916;28;97535;-62
2023/04/28 08:58:29;;;;;;;11.38;5.95;;;;;;;15.92;33.63;100386.97;30957741;28;99389;-65
2023/04/28 09:13:31;;;;;;;11.50;6.10;;;;;;;17.24;32.06;100361.28;31000929;28;96759;-64
2023/04/28 09:28:34;;;;;;;9.23;4.83;;;;;;;25.08;23.46;100333.69;30992374;28;96986;-64
2023/04/28 09:43:34;;;;;;;6.83;5.03;;;;;;;22.48;25.60;100321.19;30994079;28;97767;-64
2023/04/28 09:58:39;;;;;;;9.48;5.85;;;;;;;21.44;26.82;100298.63;30987585;28;96729;-64
2023/04/28 10:13:40;;;;;;;8.97;4.80;;;;;;;21.86;26.75;100273.16;30978481;28;97068;-65
2023/04/28 10:28:45;;;;;;;9.03;4.50;;;;;;;20.65;27.70;100255.72;30995816;28;97594;-64
2023/04/28 10:43:46;;;;;;;7.07;4.47;;;;;;;20.94;27.39;100235.00;30983831;28;97164;-62
2023/04/28 10:58:48;;;;;;;6.82;3.70;;;;;;;20.83;27.09;100231.25;30977196;28;97693;-62
2023/04/28 11:13:49;;;;;;;6.83;3.67;;;;;;;21.55;26.72;100221.06;30987289;28;97229;-62
2023/04/28 11:28:51;;;;;;;5.73;3.13;;;;;;;22.03;25.77;100200.75;30977371;28;96983;-65
2023/04/28 11:43:52;;;;;;;7.20;3.00;;;;;;;22.06;25.41;100181.31;30976987;28;96894;-62
2023/04/28 11:59:00;;;;;;;7.05;3.40;;;;;;;21.88;25.88;100154.41;30965081;28;97351;-64
2023/04/28 12:14:05;;;;;;;8.03;3.40;;;;;;;22.17;25.15;100129.91;30960268;28;97069;-63
2023/04/28 12:29:06;;;;;;;7.27;2.90;;;;;;;21.77;25.00;100142.56;30965960;28;97463;-63
2023/04/28 12:44:07;;;;;;;5.47;2.40;;;;;;;22.10;24.62;100125.47;30970682;28;97099;-64
2023/04/28 12:59:07;;;;;;;5.60;2.47;;;;;;;21.78;24.42;100114.41;30973598;28;96716;-62
2023/04/28 13:14:08;;;;;;;4.10;2.17;;;;;;;21.96;24.55;100084.31;30971941;28;97441;-64
2023/04/28 13:29:08;;;;;;;5.10;2.60;;;;;;;21.33;24.51;100098.97;30969804;28;97459;-67
2023/04/28 13:44:09;;;;;;;5.43;2.23;;;;;;;20.95;24.38;100080.44;30963647;28;96792;-62
2023/04/28 13:59:09;;;;;;;;;;;;;;;21.23;24.54;100059.81;30981132;28;96667;-62
2023/04/28 14:14:10;;;;;;;4.20;2.00;;;;;;;20.71;25.26;100027.41;30982822;28;97322;-63
2023/04/28 14:29:10;;;;;;;6.60;2.00;;;;;;;20.57;26.36;100027.69;30979443;28;96987;-62
2023/04/28 14:44:10;;;;;;;3.80;2.10;;;;;;;20.21;26.92;100018.84;30977255;28;96735;-62
2023/04/28 14:59:11;;;;;;;4.75;2.10;;;;;;;20.36;26.98;99993.16;30975892;28;112469;-63
2023/04/28 15:14:11;;;;;;;3.90;2.03;;;;;;;19.73;27.92;99974.78;30977071;28;97105;-65
2023/04/28 15:29:11;;;;;;;5.35;2.60;;;;;;;18.79;28.08;99967.38;30975734;28;96787;-65
2023/04/28 15:44:12;;;;;;;5.95;2.30;;;;;;;18.41;28.97;99960.41;30954619;28;98322;-62
2023/04/28 15:59:14;;;;;;;8.95;2.30;;;;;;;18.04;29.93;99950.50;30972114;28;107127;-63
2023/04/28 16:14:15;;;;;;;5.90;2.30;;;;;;;17.32;31.08;99961.78;30970925;28;98356;-62
2023/04/28 16:29:15;;;;;;;5.30;2.38;;;;;;;16.83;31.69;99950.72;30963047;28;97416;-63
2023/04/28 16:44:16;;;;;;;6.75;2.70;;;;;;;16.53;32.68;99919.03;30943565;28;97318;-62
2023/04/28 16:59:17;;;;;;;11.15;3.20;;;;;;;16.13;35.14;99921.94;30982229;28;103436;-62
2023/04/28 17:14:17;;;;;;;5.73;2.93;;;;;;;15.76;36.21;99913.59;31097037;28;96728;-66
2023/04/28 17:29:18;;;;;;;6.75;2.92;;;;;;;15.28;37.67;99914.72;31109130;28;102388;-67
2023/04/28 17:44:18;;;;;;;8.32;3.15;;;;;;;14.74;39.12;99903.13;31027953;28;97329;-65
2023/04/28 17:59:18;;;;;;;5.55;3.15;;;;;;;14.35;39.93;99897.47;30925957;28;98406;-68
2023/04/28 18:14:19;;;;;;;7.85;3.70;;;;;;;14.07;40.72;99902.94;30955803;28;97562;-64
2023/04/28 18:29:19;;;;;;;6.63;3.53;;;;;;;13.66;41.69;99912.63;30956585;28;113611;-67
2023/04/28 18:44:19;;;;;;;5.57;3.25;;;;;;;13.26;43.38;99927.56;30953430;28;97408;-61
2023/04/28 18:59:20;;;;;;;7.85;4.22;;;;;;;13.10;43.37;99934.84;30949517;28;97554;-65
2023/04/28 19:14:20;;;;;;;13.88;5.72;;;;;;;12.86;44.26;99917.34;30941842;28;97262;-61
2023/04/28 19:29:20;;;;;;;17.70;7.53;;;;;;;12.65;45.59;99912.84;30939976;28;111912;-65
2023/04/28 19:44:21;;;;;;;14.73;7.50;;;;;;;12.36;47.07;99911.94;30967557;28;97130;-68
2023/04/28 19:59:22;;;;;;;19.27;7.75;;;;;;;12.20;47.57;99913.00;30951290;28;97218;-62
2023/04/28 20:14:22;;;;;;;14.15;8.13;;;;;;;11.96;48.60;99914.13;30940714;28;96951;-61
2023/04/28 20:29:23;;;;;;;13.38;8.05;;;;;;;11.67;49.90;99913.09;30914841;28;113533;-69
2023/04/28 20:44:23;;;;;;;12.40;7.38;;;;;;;11.35;50.77;99915.13;30926977;28;97214;-61
2023/04/28 20:59:23;;;;;;;16.52;8.07;;;;;;;11.24;52.39;99903.06;30951788;28;97434;-61
2023/04/28 21:14:24;;;;;;;15.25;7.75;;;;;;;11.23;53.07;99887.25;30955895;28;112296;-66
2023/04/28 21:29:25;;;;;;;11.75;7.00;;;;;;;11.29;53.76;99883.84;30969721;28;96976;-64
2023/04/28 21:44:25;;;;;;;15.90;9.13;;;;;;;11.28;54.07;99880.34;30956305;28;96837;-62
2023/04/28 21:59:25;;;;;;;19.58;9.80;;;;;;;11.35;54.26;99878.59;30977624;28;96732;-70
2023/04/28 22:14:26;;;;;;;12.30;7.25;;;;;;;11.29;54.82;99881.16;30934775;28;96825;-63
2023/04/28 22:29:27;;;;;;;15.23;8.60;;;;;;;11.29;55.43;99855.34;30931351;28;97178;-68
2023/04/28 22:44:27;;;;;;;14.77;10.10;;;;;;;11.20;56.11;99851.09;30919347;28;97546;-69
2023/04/28 22:59:28;;;;;;;14.48;8.35;;;;;;;11.16;56.63;99842.63;30947247;28;96741;-62
2023/04/28 23:14:29;;;;;;;14.00;9.15;;;;;;;11.17;57.13;99840.81;30938360;28;97267;-65
2023/04/28 23:29:29;;;;;;;11.97;7.77;;;;;;;11.08;58.01;99845.38;30919924;28;96783;-63
2023/04/28 23:44:29;;;;;;;12.57;7.07;;;;;;;10.96;58.12;99820.19;30921340;28;97633;-62
2023/04/28 23:59:30;;;;;;;11.70;7.38;;;;;;;10.89;58.58;99809.41;30922441;28;105098;-69
